Time;durP1;ratioP1;P1;durP2;ratioP2;P2;SDS_P1;SDS_P2;PMS_P1;PMS_P2;Temp;Humidity;BMP_temperature;BMP_pressure;BME280_temperature;BME280_humidity;BME280_pressure;Samples;Min_cycle;Max_cycle;Signal;HPM_P1;HPM_P2
2023/06/29 00:00:31;;;;;;;20.70;15.88;;;;;;;22.52;100.00;101543.00;6498279;23;20011;-73
2023/06/29 00:03:02;;;;;;;23.83;14.00;;;;;;;22.41;100.00;101534.25;6498330;23;20004;-73
2023/06/29 00:05:35;;;;;;;18.40;14.63;;;;;;;22.41;100.00;101536.91;6498788;23;20007;-73
2023/06/29 00:08:06;;;;;;;19.30;14.20;;;;;;;22.34;100.00;101531.38;6499496;23;20088;-73
2023/06/29 00:10:39;;;;;;;17.73;13.97;;;;;;;22.39;100.00;101525.59;6478795;23;20044;-73
2023/06/29 00:13:10;;;;;;;24.50;15.88;;;;;;;22.26;100.00;101527.78;6499158;22;20354;-72
2023/06/29 00:15:42;;;;;;;28.60;16.53;;;;;;;22.31;100.00;101514.81;6499073;22;20011;-73
2023/06/29 00:18:15;;;;;;;20.63;15.20;;;;;;;22.33;100.00;101512.84;6496993;22;20425;-73
2023/06/29 00:20:46;;;;;;;25.05;15.93;;;;;;;22.21;100.00;101515.75;6498461;22;20008;-73
2023/06/29 00:23:17;;;;;;;24.37;16.37;;;;;;;22.30;100.00;101508.69;6499229;22;20007;-73
2023/06/29 00:25:49;;;;;;;22.02;16.17;;;;;;;22.12;100.00;101512.19;6498448;22;20031;-73
2023/06/29 00:28:21;;;;;;;21.80;14.77;;;;;;;22.20;100.00;101513.25;6498596;22;20015;-73
2023/06/29 00:30:52;;;;;;;21.70;15.82;;;;;;;22.36;100.00;101509.88;6498100;22;20004;-73
2023/06/29 00:33:23;;;;;;;21.67;15.93;;;;;;;22.26;100.00;101503.78;6498089;23;20433;-73
2023/06/29 00:35:54;;;;;;;20.15;15.35;;;;;;;22.35;100.00;101505.53;6498639;22;20007;-73
2023/06/29 00:38:26;;;;;;;28.23;17.43;;;;;;;22.17;100.00;101508.19;6498233;22;20000;-73
2023/06/29 00:40:57;;;;;;;22.07;15.73;;;;;;;22.05;100.00;101502.25;6522754;22;20341;-74
2023/06/29 00:43:29;;;;;;;25.80;16.73;;;;;;;22.21;100.00;101493.56;6498475;22;20000;-74
2023/06/29 00:46:02;;;;;;;21.23;16.83;;;;;;;22.30;100.00;101498.00;6498846;22;20004;-75
2023/06/29 00:48:37;;;;;;;26.50;16.35;;;;;;;22.35;100.00;101501.03;6497598;22;20081;-71
2023/06/29 00:51:09;;;;;;;19.92;17.40;;;;;;;22.32;100.00;101505.84;6522823;22;20654;-73
2023/06/29 00:53:40;;;;;;;21.93;17.07;;;;;;;22.19;100.00;101485.72;6498634;22;20000;-73
2023/06/29 00:56:11;;;;;;;18.77;16.33;;;;;;;22.23;100.00;101492.44;6498475;22;20009;-72
2023/06/29 00:58:43;;;;;;;23.93;16.77;;;;;;;22.18;100.00;101486.72;6498225;22;20003;-73
2023/06/29 01:01:14;;;;;;;23.83;16.83;;;;;;;22.02;100.00;101451.91;6525001;22;20024;-72
2023/06/29 01:03:46;;;;;;;27.70;16.87;;;;;;;22.28;100.00;101483.13;6490504;23;20413;-73
2023/06/29 01:06:22;;;;;;;24.90;18.27;;;;;;;22.06;100.00;101487.94;6498753;23;20010;-72
2023/06/29 01:09:05;;;;;;;20.60;16.90;;;;;;;22.10;100.00;101481.31;6498219;23;20087;-74
2023/06/29 01:11:37;;;;;;;22.53;17.20;;;;;;;22.05;100.00;101484.44;6497805;23;20050;-72
2023/06/29 01:14:11;;;;;;;23.53;18.63;;;;;;;22.00;100.00;101487.56;6497402;23;20500;-73
2023/06/29 01:16:43;;;;;;;23.25;18.20;;;;;;;22.21;100.00;101489.09;6498148;23;20087;-73
2023/06/29 01:19:21;;;;;;;19.30;17.27;;;;;;;22.27;100.00;101492.97;6497385;23;20015;-72
2023/06/29 01:22:02;;;;;;;25.20;17.95;;;;;;;22.26;100.00;101491.28;6470931;23;20000;-72
2023/06/29 01:24:40;;;;;;;20.77;16.70;;;;;;;22.23;100.00;101483.59;6470499;23;20016;-73
2023/06/29 01:27:12;;;;;;;19.03;16.90;;;;;;;22.00;100.00;101482.25;6498397;23;20380;-72
2023/06/29 01:29:44;;;;;;;23.03;18.00;;;;;;;22.15;100.00;101473.69;6498251;23;20008;-73
2023/06/29 01:32:15;;;;;;;27.43;18.37;;;;;;;22.12;100.00;101464.16;6496695;23;20111;-72
2023/06/29 01:34:47;;;;;;;26.00;17.47;;;;;;;22.01;100.00;101475.06;6498657;23;20039;-73
2023/06/29 01:37:21;;;;;;;22.47;17.93;;;;;;;21.95;100.00;101473.84;6498756;23;20004;-73
2023/06/29 01:39:54;;;;;;;19.57;17.53;;;;;;;21.95;100.00;101468.53;6498103;23;20008;-73
2023/06/29 01:42:26;;;;;;;20.27;17.23;;;;;;;21.98;100.00;101462.88;6497703;23;20027;-73
2023/06/29 01:45:03;;;;;;;21.77;17.13;;;;;;;21.97;100.00;101471.88;6497662;23;20008;-72
2023/06/29 01:47:35;;;;;;;20.90;16.80;;;;;;;21.95;100.00;101457.84;6496447;23;20035;-72
2023/06/29 01:50:07;;;;;;;19.60;16.97;;;;;;;21.80;100.00;101454.88;6497985;23;20007;-73
2023/06/29 01:52:39;;;;;;;24.77;18.27;;;;;;;21.81;100.00;101459.22;6470387;23;20004;-73
2023/06/29 01:55:11;;;;;;;20.13;17.93;;;;;;;21.88;100.00;101462.97;6471691;23;20104;-72
2023/06/29 01:57:42;;;;;;;22.50;17.60;;;;;;;22.07;100.00;101455.78;6497717;23;20031;-73
2023/06/29 02:00:13;;;;;;;20.80;17.03;;;;;;;21.86;100.00;101459.59;6497757;23;20005;-73
2023/06/29 02:02:45;;;;;;;25.80;18.67;;;;;;;21.94;100.00;101466.00;6508896;22;20012;-73
2023/06/29 02:05:17;;;;;;;23.93;18.27;;;;;;;21.98;100.00;101460.22;6498398;22;20008;-73
2023/06/29 02:07:49;;;;;;;20.60;17.93;;;;;;;21.70;100.00;101446.91;6497300;22;20011;-73
2023/06/29 02:10:20;;;;;;;24.83;19.67;;;;;;;21.74;100.00;101450.13;6497018;22;20000;-73
2023/06/29 02:12:51;;;;;;;20.67;18.30;;;;;;;21.69;100.00;101450.59;6521456;22;20094;-73
2023/06/29 02:15:23;;;;;;;25.00;19.07;;;;;;;21.71;100.00;101445.91;6496971;22;20000;-73
2023/06/29 02:17:54;;;;;;;22.47;18.57;;;;;;;21.84;100.00;101440.25;6496147;22;20000;-73
2023/06/29 02:20:25;;;;;;;24.30;19.67;;;;;;;21.92;100.00;101438.66;6498326;22;20367;-73
2023/06/29 02:22:57;;;;;;;24.03;17.90;;;;;;;21.81;100.00;101440.56;6495723;22;20046;-73
2023/06/29 02:25:28;;;;;;;26.80;19.35;;;;;;;21.66;100.00;101434.88;6497239;22;20008;-73
2023/06/29 02:27:59;;;;;;;21.73;19.07;;;;;;;21.83;100.00;101441.25;6496198;23;20000;-73
2023/06/29 02:30:30;;;;;;;20.73;18.27;;;;;;;21.84;100.00;101448.25;6498047;22;20000;-73
2023/06/29 02:33:02;;;;;;;24.47;19.37;;;;;;;21.77;100.00;101433.81;6497105;23;20031;-73
2023/06/29 02:35:33;;;;;;;23.00;19.63;;;;;;;21.81;100.00;101439.72;6496748;22;20008;-73
2023/06/29 02:38:04;;;;;;;22.80;19.13;;;;;;;21.77;100.00;101428.50;6497570;22;20000;-73
2023/06/29 02:40:36;;;;;;;27.20;19.93;;;;;;;21.82;100.00;101426.22;6495476;23;20451;-73
2023/06/29 02:43:07;;;;;;;24.03;19.70;;;;;;;21.82;100.00;101420.09;6496361;23;20074;-73
2023/06/29 02:45:38;;;;;;;23.07;19.53;;;;;;;21.78;100.00;101427.50;6497030;22;20000;-73
2023/06/29 02:48:10;;;;;;;22.80;20.40;;;;;;;21.60;100.00;101427.50;6496065;22;20329;-73
2023/06/29 02:50:41;;;;;;;22.43;18.93;;;;;;;21.72;100.00;101426.28;6497069;22;20010;-73
2023/06/29 02:53:16;;;;;;;24.67;19.17;;;;;;;21.60;100.00;101427.50;6497025;22;20449;-73
2023/06/29 02:55:47;;;;;;;26.87;19.03;;;;;;;21.79;100.00;101423.00;6495815;23;20008;-73
2023/06/29 02:58:18;;;;;;;21.17;18.87;;;;;;;21.76;100.00;101419.63;6521833;22;20475;-73
2023/06/29 03:00:50;;;;;;;22.60;18.70;;;;;;;21.55;100.00;101417.28;6497277;22;20032;-73
2023/06/29 03:03:21;;;;;;;25.20;19.80;;;;;;;21.50;100.00;101422.25;6496485;22;20035;-73
2023/06/29 03:05:52;;;;;;;23.53;19.00;;;;;;;21.62;100.00;101414.84;6497188;23;20005;-73
2023/06/29 03:08:24;;;;;;;29.17;22.57;;;;;;;21.62;100.00;101414.84;6497602;23;20004;-74
2023/06/29 03:10:55;;;;;;;26.33;20.63;;;;;;;21.67;100.00;101420.56;6496862;23;20004;-73
2023/06/29 03:13:26;;;;;;;26.67;19.67;;;;;;;21.65;100.00;101419.88;6494765;23;20445;-73
2023/06/29 03:16:00;;;;;;;25.67;21.27;;;;;;;21.66;100.00;101412.72;6497361;23;20028;-73
2023/06/29 03:18:32;;;;;;;;;;;;;;;22.26;100.00;101415.75;6496323;23;20320;-73
2023/06/29 03:21:03;;;;;;;26.77;21.60;;;;;;;21.71;100.00;101413.94;6497068;23;19991;-73
2023/06/29 03:23:34;;;;;;;29.37;23.30;;;;;;;21.74;100.00;101413.66;6496823;23;20054;-73
2023/06/29 03:26:05;;;;;;;27.83;23.07;;;;;;;21.76;100.00;101403.66;6497508;23;20302;-73
2023/06/29 03:28:37;;;;;;;29.23;24.10;;;;;;;21.72;100.00;101406.78;6496679;23;20410;-73
2023/06/29 03:31:08;;;;;;;25.30;22.67;;;;;;;21.79;100.00;101413.22;6497102;23;20011;-73
2023/06/29 03:33:40;;;;;;;30.07;24.07;;;;;;;21.64;100.00;101407.56;6497403;23;19996;-73
2023/06/29 03:36:12;;;;;;;27.80;23.50;;;;;;;21.67;100.00;101404.59;6501358;23;20004;-73
2023/06/29 03:38:43;;;;;;;27.93;22.83;;;;;;;21.69;100.00;101412.44;6500455;23;20001;-74
2023/06/29 03:41:15;;;;;;;30.03;22.50;;;;;;;21.63;100.00;101403.19;6501602;23;20004;-73
2023/06/29 03:43:46;;;;;;;26.30;21.57;;;;;;;21.67;100.00;101401.91;6500773;23;20100;-73
2023/06/29 03:46:17;;;;;;;28.67;22.17;;;;;;;21.66;100.00;101400.22;6500913;23;20031;-73
2023/06/29 03:48:49;;;;;;;25.05;22.30;;;;;;;21.63;100.00;101400.53;6499079;23;20115;-73
2023/06/29 03:51:20;;;;;;;25.90;21.57;;;;;;;21.63;100.00;101409.38;6499972;23;20008;-73
2023/06/29 03:53:51;;;;;;;27.90;22.27;;;;;;;21.65;100.00;101406.56;6500365;23;20023;-73
2023/06/29 03:56:22;;;;;;;26.13;21.90;;;;;;;21.67;100.00;101401.91;6500613;23;20420;-73
2023/06/29 03:58:54;;;;;;;28.40;22.73;;;;;;;21.43;100.00;101408.69;6498971;23;20038;-73
2023/06/29 04:01:25;;;;;;;31.57;21.77;;;;;;;21.40;100.00;101392.97;6500106;23;20363;-73
2023/06/29 04:03:57;;;;;;;25.93;22.67;;;;;;;21.47;100.00;101393.25;6496676;23;20463;-74
2023/06/29 04:06:28;;;;;;;26.60;22.83;;;;;;;21.47;100.00;101387.91;6499994;23;20001;-73
2023/06/29 04:08:59;;;;;;;29.30;22.63;;;;;;;21.45;100.00;101387.22;6499708;23;20062;-73
2023/06/29 04:11:30;;;;;;;29.47;22.80;;;;;;;21.61;100.00;101386.50;6500390;23;20079;-73
2023/06/29 04:14:02;;;;;;;27.40;22.63;;;;;;;21.62;100.00;101380.22;6501369;23;20071;-73
2023/06/29 04:16:33;;;;;;;30.33;21.43;;;;;;;21.61;100.00;101378.53;6499858;23;20060;-73
2023/06/29 04:19:04;;;;;;;25.77;21.37;;;;;;;21.66;100.00;101384.22;6473747;23;20043;-73
2023/06/29 04:21:36;;;;;;;29.80;22.73;;;;;;;21.52;100.00;101381.13;6448685;23;20010;-73
2023/06/29 04:24:07;;;;;;;25.73;22.87;;;;;;;21.55;100.00;101376.47;6500664;23;20413;-73
2023/06/29 04:26:38;;;;;;;30.20;22.17;;;;;;;21.52;100.00;101372.31;6500568;23;20000;-73
2023/06/29 04:29:10;;;;;;;30.07;23.13;;;;;;;21.56;100.00;101378.13;6498964;23;20012;-73
2023/06/29 04:31:41;;;;;;;27.83;22.57;;;;;;;21.42;100.00;101384.88;6500227;23;20032;-73
2023/06/29 04:34:17;;;;;;;27.37;21.33;;;;;;;21.47;100.00;101370.06;6500472;23;20020;-73
2023/06/29 04:36:48;;;;;;;26.37;21.53;;;;;;;21.61;100.00;101370.53;6500584;23;20321;-73
2023/06/29 04:39:19;;;;;;;26.67;21.47;;;;;;;21.62;100.00;101378.41;6500949;23;20008;-73
2023/06/29 04:42:01;;;;;;;26.60;22.43;;;;;;;21.44;100.00;101370.38;6499979;23;20054;-72
2023/06/29 04:44:32;;;;;;;26.63;21.87;;;;;;;21.62;100.00;101380.22;6450188;23;20058;-73
2023/06/29 04:47:04;;;;;;;27.53;22.37;;;;;;;21.58;100.00;101370.84;6495000;23;20818;-73
2023/06/29 04:49:39;;;;;;;26.53;23.50;;;;;;;21.56;100.00;101365.66;6498575;23;20135;-74
2023/06/29 04:52:11;;;;;;;23.33;20.83;;;;;;;21.49;100.00;101378.75;6496686;23;20008;-73
2023/06/29 04:54:42;;;;;;;27.60;21.83;;;;;;;21.65;100.00;101377.25;6498504;23;20004;-73
2023/06/29 04:57:13;;;;;;;29.37;23.50;;;;;;;21.70;100.00;101377.63;6499302;23;20007;-73
2023/06/29 04:59:44;;;;;;;26.97;22.47;;;;;;;21.72;100.00;101378.31;6498822;23;20021;-73
2023/06/29 05:02:16;;;;;;;28.93;21.83;;;;;;;21.63;100.00;101369.41;6497769;23;20016;-73
2023/06/29 05:04:48;;;;;;;26.97;22.20;;;;;;;21.67;100.00;101377.94;6499101;23;20424;-73
2023/06/29 05:07:20;;;;;;;30.87;23.43;;;;;;;21.60;100.00;101376.84;6498464;23;20011;-73
2023/06/29 05:09:51;;;;;;;29.50;23.10;;;;;;;21.57;100.00;101363.84;6498312;23;20421;-73
2023/06/29 05:12:22;;;;;;;28.90;22.70;;;;;;;21.66;100.00;101376.22;6498573;23;20337;-73
2023/06/29 05:14:54;;;;;;;30.03;23.27;;;;;;;21.63;100.00;101379.22;6499023;23;20054;-73
2023/06/29 05:17:25;;;;;;;29.47;23.80;;;;;;;21.61;100.00;101375.84;6497873;23;20014;-73
2023/06/29 05:19:57;;;;;;;28.43;22.00;;;;;;;21.68;100.00;101370.78;6496005;23;20004;-73
2023/06/29 05:22:28;;;;;;;26.47;22.97;;;;;;;21.48;100.00;101369.09;6498803;23;20062;-73
2023/06/29 05:24:59;;;;;;;27.00;23.88;;;;;;;21.44;100.00;101370.38;6498014;23;20011;-73
2023/06/29 05:27:31;;;;;;;28.13;24.67;;;;;;;21.47;100.00;101371.94;6497912;23;20001;-73
2023/06/29 05:30:02;;;;;;;39.57;25.43;;;;;;;21.55;100.00;101371.16;6498872;23;20428;-73
2023/06/29 05:32:34;;;;;;;28.73;24.23;;;;;;;21.58;100.00;101370.84;6497381;23;20001;-73
2023/06/29 05:35:06;;;;;;;30.60;24.37;;;;;;;21.50;100.00;101364.44;6498365;23;20004;-73
2023/06/29 05:37:38;;;;;;;33.70;25.37;;;;;;;21.46;100.00;101364.91;6498241;23;20031;-73
2023/06/29 05:40:10;;;;;;;31.00;24.80;;;;;;;21.48;100.00;101358.44;6498309;23;20011;-74
2023/06/29 05:42:41;;;;;;;30.73;24.67;;;;;;;21.53;100.00;101368.63;6497939;23;20000;-74
2023/06/29 05:45:12;;;;;;;29.17;24.17;;;;;;;21.51;100.00;101366.13;6497979;23;20062;-73
2023/06/29 05:47:44;;;;;;;32.57;24.23;;;;;;;21.62;100.00;101361.56;6497153;23;20008;-73
2023/06/29 05:50:16;;;;;;;32.40;26.05;;;;;;;21.69;100.00;101367.97;6496060;23;20004;-73
2023/06/29 05:52:47;;;;;;;30.63;24.70;;;;;;;21.78;100.00;101365.34;6497888;23;20011;-73
2023/06/29 05:55:19;;;;;;;28.27;24.00;;;;;;;21.74;100.00;101364.81;6498212;23;20004;-74
2023/06/29 05:57:50;;;;;;;31.23;23.50;;;;;;;21.69;100.00;101359.97;6498073;23;21234;-73
2023/06/29 06:00:22;;;;;;;28.67;22.60;;;;;;;21.63;100.00;101364.06;6498950;23;20016;-72
2023/06/29 06:02:53;;;;;;;25.13;21.13;;;;;;;21.79;100.00;101356.34;6496382;23;20015;-71
2023/06/29 06:05:24;;;;;;;33.23;22.83;;;;;;;21.83;100.00;101357.75;6498359;23;20007;-72
2023/06/29 06:07:56;;;;;;;24.00;20.50;;;;;;;21.84;100.00;101360.28;6497612;23;20004;-72
2023/06/29 06:10:27;;;;;;;27.75;23.40;;;;;;;21.86;100.00;101354.78;6496023;23;20079;-73
2023/06/29 06:12:59;;;;;;;24.88;21.33;;;;;;;21.88;100.00;101355.47;6497799;23;20003;-72
2023/06/29 06:15:30;;;;;;;28.20;21.58;;;;;;;21.96;100.00;101352.84;6497540;23;20028;-73
2023/06/29 06:18:01;;;;;;;26.13;21.53;;;;;;;22.03;100.00;101354.94;6497109;23;20008;-73
2023/06/29 06:20:33;;;;;;;25.58;21.08;;;;;;;22.06;100.00;101354.59;6497933;23;20111;-73
2023/06/29 06:23:04;;;;;;;23.48;20.02;;;;;;;22.18;100.00;101353.34;6497014;23;20073;-73
2023/06/29 06:25:35;;;;;;;26.40;20.23;;;;;;;22.18;100.00;101355.19;6471323;23;20004;-73
2023/06/29 06:28:07;;;;;;;26.70;20.45;;;;;;;22.13;100.00;101363.66;6497772;23;20024;-73
2023/06/29 06:30:38;;;;;;;22.83;20.33;;;;;;;22.17;100.00;101349.00;6497309;23;20308;-74
2023/06/29 06:33:10;;;;;;;20.80;18.60;;;;;;;22.23;100.00;101359.06;6495346;23;20004;-74
2023/06/29 06:35:42;;;;;;;25.48;19.95;;;;;;;22.19;100.00;101352.34;6497090;23;20409;-74
2023/06/29 06:38:13;;;;;;;25.75;19.73;;;;;;;22.27;100.00;101356.06;6470871;23;20067;-74
2023/06/29 06:40:45;;;;;;;22.85;19.95;;;;;;;22.36;100.00;101357.78;6496793;23;20049;-74
2023/06/29 06:43:17;;;;;;;23.88;20.05;;;;;;;22.40;99.69;101347.63;6497135;23;20491;-74
2023/06/29 06:45:48;;;;;;;21.50;19.13;;;;;;;22.44;97.44;101344.50;6498138;23;20373;-74
2023/06/29 06:48:20;;;;;;;21.65;18.98;;;;;;;22.48;96.86;101351.19;6495984;23;20028;-74
2023/06/29 06:50:51;;;;;;;23.05;18.77;;;;;;;22.60;96.06;101351.72;6497196;23;20030;-74
2023/06/29 06:53:22;;;;;;;21.00;17.80;;;;;;;22.74;94.07;101348.66;6496017;23;20000;-74
2023/06/29 06:55:54;;;;;;;21.63;19.25;;;;;;;22.91;94.00;101353.06;6497490;23;20298;-74
2023/06/29 06:58:25;;;;;;;21.45;18.50;;;;;;;23.17;94.95;101351.28;6497989;23;19996;-73
2023/06/29 07:00:57;;;;;;;22.20;19.67;;;;;;;23.26;89.01;101352.16;6495489;23;20004;-72
2023/06/29 07:03:29;;;;;;;24.23;19.67;;;;;;;23.40;85.92;101346.16;6497269;23;20019;-73
2023/06/29 07:06:01;;;;;;;20.65;18.42;;;;;;;23.65;85.14;101356.88;6497663;23;20004;-70
2023/06/29 07:08:34;;;;;;;22.48;18.92;;;;;;;23.73;84.45;101348.03;6496636;23;20053;-70
2023/06/29 07:11:06;;;;;;;22.13;18.80;;;;;;;23.92;79.73;101348.69;6497741;23;20083;-69
2023/06/29 07:13:37;;;;;;;21.58;19.00;;;;;;;24.13;79.38;101350.84;6497120;23;20024;-68
2023/06/29 07:16:09;;;;;;;20.67;18.42;;;;;;;24.60;77.78;101343.03;6496944;23;20000;-69
2023/06/29 07:19:01;;;;;;;21.17;18.83;;;;;;;24.76;72.49;101355.53;6497536;23;20003;-70
2023/06/29 07:21:33;;;;;;;23.83;18.17;;;;;;;24.62;70.65;101349.06;6497106;23;20462;-75
2023/06/29 07:24:05;;;;;;;23.50;18.67;;;;;;;24.64;68.94;101356.91;6497834;23;20039;-75
2023/06/29 07:26:37;;;;;;;21.52;18.73;;;;;;;24.67;71.52;101359.25;6496549;23;20429;-73
2023/06/29 07:29:08;;;;;;;22.20;19.35;;;;;;;24.74;70.62;101352.19;6497383;23;20009;-75
2023/06/29 07:31:40;;;;;;;24.30;20.35;;;;;;;24.69;69.04;101334.97;6494534;23;20435;-77
2023/06/29 07:34:11;;;;;;;22.90;20.50;;;;;;;24.86;64.66;101346.44;6496910;23;20071;-77
2023/06/29 07:36:42;;;;;;;25.45;21.23;;;;;;;24.73;64.48;101336.28;6494376;23;20004;-77
2023/06/29 07:39:14;;;;;;;23.45;20.38;;;;;;;24.73;64.79;101347.81;6496309;23;20083;-76
2023/06/29 07:41:45;;;;;;;20.77;18.45;;;;;;;24.73;62.41;101336.28;6496807;23;20617;-76
2023/06/29 07:44:16;;;;;;;22.25;19.85;;;;;;;24.84;64.11;101353.81;6497486;23;20059;-76
2023/06/29 07:46:48;;;;;;;24.23;20.25;;;;;;;24.82;62.64;101329.88;6495835;23;20152;-76
2023/06/29 07:49:21;;;;;;;22.85;19.02;;;;;;;24.93;62.52;101335.88;6495368;23;20016;-76
2023/06/29 07:51:53;;;;;;;22.45;18.83;;;;;;;24.96;60.29;101336.34;6496094;23;20008;-77
2023/06/29 07:54:24;;;;;;;22.50;19.00;;;;;;;25.03;60.07;101331.13;6495995;23;20332;-77
2023/06/29 07:56:55;;;;;;;22.90;19.83;;;;;;;25.11;61.23;101336.47;6468111;23;20028;-77
2023/06/29 07:59:27;;;;;;;24.85;19.20;;;;;;;25.00;61.58;101328.81;6495316;23;20083;-77
2023/06/29 08:01:58;;;;;;;23.77;20.77;;;;;;;25.06;62.61;101343.34;6495011;23;20019;-75
2023/06/29 08:04:29;;;;;;;23.80;19.65;;;;;;;24.96;62.35;101330.19;6496184;23;19996;-75
2023/06/29 08:07:01;;;;;;;23.90;19.05;;;;;;;24.81;61.76;101336.25;6497209;23;20005;-75
2023/06/29 08:09:32;;;;;;;21.55;19.23;;;;;;;24.81;63.93;101330.91;6495304;23;20165;-75
2023/06/29 08:12:04;;;;;;;23.05;20.60;;;;;;;24.79;62.22;101330.22;6497104;23;20490;-74
2023/06/29 08:14:37;;;;;;;24.23;20.60;;;;;;;24.69;62.29;101324.25;6496469;23;20008;-75
2023/06/29 08:17:08;;;;;;;23.17;19.88;;;;;;;24.65;61.81;101332.63;6495634;23;20031;-71
2023/06/29 08:19:40;;;;;;;25.42;21.75;;;;;;;24.78;61.46;101325.91;6495948;23;20004;-72
2023/06/29 08:22:11;;;;;;;25.98;21.00;;;;;;;24.85;61.83;101326.03;6495985;23;20035;-71
2023/06/29 08:24:42;;;;;;;23.02;20.25;;;;;;;24.97;62.04;101329.16;6497883;23;20004;-71
2023/06/29 08:27:14;;;;;;;23.65;20.40;;;;;;;24.96;61.74;101325.66;6498846;23;20443;-73
2023/06/29 08:29:45;;;;;;;22.70;20.15;;;;;;;25.11;61.92;101335.63;6498557;23;20000;-73
2023/06/29 08:32:16;;;;;;;28.15;21.52;;;;;;;25.09;60.58;101335.78;6497081;23;20011;-73
2023/06/29 08:34:47;;;;;;;24.63;21.10;;;;;;;25.00;60.39;101336.84;6498623;23;20000;-74
2023/06/29 08:37:22;;;;;;;24.92;21.30;;;;;;;24.99;60.04;101332.50;6499169;23;20043;-72
2023/06/29 08:39:56;;;;;;;24.13;21.10;;;;;;;24.89;60.09;101330.84;6498768;23;20000;-71
2023/06/29 08:42:27;;;;;;;;;;;;;;;25.50;59.22;101334.66;6498695;23;20507;-74
2023/06/29 08:44:59;;;;;;;26.95;22.80;;;;;;;25.12;58.95;101326.56;6498585;23;19939;-75
2023/06/29 08:47:32;;;;;;;29.05;23.00;;;;;;;25.33;58.20;101325.91;6497166;23;20015;-74
2023/06/29 08:50:05;;;;;;;23.83;20.90;;;;;;;25.71;57.58;101327.81;6499185;23;20441;-74
2023/06/29 08:52:39;;;;;;;26.20;21.77;;;;;;;26.09;57.66;101329.59;6498396;23;20004;-75
2023/06/29 08:55:11;;;;;;;27.88;22.52;;;;;;;26.37;57.74;101324.66;6498685;23;20004;-74
2023/06/29 08:57:42;;;;;;;28.15;23.02;;;;;;;26.65;54.91;101314.06;6495207;23;20015;-74
2023/06/29 09:00:15;;;;;;;24.73;21.27;;;;;;;27.24;53.59;101313.25;6497421;23;20014;-74
2023/06/29 09:02:48;;;;;;;26.53;23.10;;;;;;;27.83;50.49;101324.75;6496157;23;20465;-75
2023/06/29 09:05:21;;;;;;;25.85;23.10;;;;;;;28.02;49.37;101315.13;6497853;23;20246;-74
2023/06/29 09:07:53;;;;;;;27.65;23.83;;;;;;;27.89;47.65;101312.38;6497369;23;20012;-74
2023/06/29 09:10:24;;;;;;;26.05;21.38;;;;;;;28.25;48.24;101318.56;6498546;23;20001;-74
2023/06/29 09:12:55;;;;;;;26.17;21.23;;;;;;;28.34;48.85;101321.91;6498236;23;20000;-74
2023/06/29 09:15:28;;;;;;;26.05;20.77;;;;;;;27.92;47.05;101321.88;6498240;23;20319;-74
2023/06/29 09:18:00;;;;;;;23.70;20.57;;;;;;;27.58;47.92;101313.56;6494758;23;20011;-74
2023/06/29 09:20:35;;;;;;;27.63;20.92;;;;;;;27.63;48.62;101321.88;6497893;23;20552;-74
2023/06/29 09:23:06;;;;;;;21.30;19.20;;;;;;;27.22;48.41;101321.53;6497729;23;20000;-74
2023/06/29 09:25:38;;;;;;;24.02;20.50;;;;;;;27.12;48.52;101318.31;6497415;23;20004;-74
2023/06/29 09:28:11;;;;;;;23.35;19.38;;;;;;;26.95;51.56;101310.44;6498229;23;20325;-74
2023/06/29 09:30:43;;;;;;;25.27;21.77;;;;;;;26.91;50.20;101303.81;6495630;23;20012;-74
2023/06/29 09:33:15;;;;;;;29.42;21.92;;;;;;;26.72;51.17;101310.63;6498248;23;20485;-74
2023/06/29 09:35:50;;;;;;;67.25;47.33;;;;;;;26.57;51.66;101308.78;6495745;23;20035;-74
2023/06/29 09:38:21;;;;;;;27.17;23.67;;;;;;;26.64;51.98;101311.56;6497665;23;20007;-74
2023/06/29 09:40:54;;;;;;;26.00;23.20;;;;;;;26.42;51.40;101311.50;6497161;23;20008;-74
2023/06/29 09:43:29;;;;;;;24.05;20.88;;;;;;;26.49;51.38;101317.81;6497625;23;20023;-74
2023/06/29 09:46:08;;;;;;;26.25;23.50;;;;;;;26.59;52.31;101317.50;6496119;23;20011;-74
2023/06/29 09:48:48;;;;;;;25.70;22.55;;;;;;;26.54;52.26;101320.75;6497318;23;20491;-74
2023/06/29 09:51:21;;;;;;;25.75;23.00;;;;;;;26.47;51.82;101322.53;6497521;23;20079;-74
2023/06/29 09:53:52;;;;;;;26.58;23.42;;;;;;;26.39;52.76;101310.00;6497434;23;20053;-76
2023/06/29 09:56:25;;;;;;;26.00;23.25;;;;;;;26.41;52.24;101316.03;6497838;23;20008;-74
2023/06/29 09:58:57;;;;;;;24.67;22.08;;;;;;;26.27;51.86;101315.00;6497296;23;20079;-76
2023/06/29 10:01:28;;;;;;;27.05;21.50;;;;;;;26.30;53.58;101321.84;6496099;23;20032;-75
2023/06/29 10:04:00;;;;;;;24.98;21.52;;;;;;;26.12;52.69;101306.09;6471350;23;20011;-74
2023/06/29 10:06:45;;;;;;;26.67;23.73;;;;;;;26.34;53.52;101310.59;6495542;23;20004;-74
2023/06/29 10:09:20;;;;;;;28.85;21.08;;;;;;;26.05;55.77;101322.97;6497887;23;20051;-74
2023/06/29 10:11:54;;;;;;;30.52;23.27;;;;;;;26.21;53.83;101315.75;6496322;23;20405;-75
2023/06/29 10:14:26;;;;;;;32.50;23.17;;;;;;;26.28;53.08;101316.69;6497921;23;20320;-75
2023/06/29 10:16:57;;;;;;;29.15;24.10;;;;;;;26.25;53.32;101311.66;6494446;23;20008;-76
2023/06/29 10:19:32;;;;;;;28.48;23.33;;;;;;;26.33;53.19;101310.75;6497088;23;20409;-75
2023/06/29 10:22:07;;;;;;;27.80;24.55;;;;;;;26.36;53.18;101317.63;6496186;23;20017;-75
2023/06/29 10:24:47;;;;;;;27.15;23.17;;;;;;;26.44;53.15;101317.53;6470112;23;20004;-75
2023/06/29 10:27:21;;;;;;;26.95;24.15;;;;;;;26.45;52.72;101313.81;6498067;23;20004;-75
2023/06/29 10:29:52;;;;;;;26.48;23.42;;;;;;;26.26;53.37;101324.06;6495671;23;20000;-76
2023/06/29 10:32:34;;;;;;;27.25;24.15;;;;;;;26.47;53.36;101319.84;6496533;23;20011;-75
2023/06/29 10:35:12;;;;;;;28.02;22.58;;;;;;;26.32;55.23;101315.28;6495755;23;20410;-76
2023/06/29 10:37:49;;;;;;;27.38;22.85;;;;;;;26.25;54.50;101319.72;6496151;23;20014;-76
2023/06/29 10:40:24;;;;;;;24.85;22.15;;;;;;;26.34;54.90;101321.31;6496742;23;20000;-75
2023/06/29 10:42:56;;;;;;;25.80;22.98;;;;;;;26.34;55.12;101317.78;6495487;23;20004;-74
2023/06/29 10:45:30;;;;;;;27.58;23.10;;;;;;;26.16;54.90;101320.84;6490501;23;20000;-78
2023/06/29 10:48:03;;;;;;;25.48;22.77;;;;;;;26.16;55.65;101305.56;6495456;23;20440;-79
2023/06/29 10:50:37;;;;;;;31.13;24.33;;;;;;;25.95;58.58;101317.03;6496389;23;20039;-76
2023/06/29 10:53:10;;;;;;;28.45;25.05;;;;;;;26.32;56.33;101307.22;6496915;23;20022;-77
2023/06/29 10:55:53;;;;;;;29.98;24.75;;;;;;;26.34;55.37;101304.38;6495957;23;20011;-76
2023/06/29 10:58:28;;;;;;;31.13;24.27;;;;;;;26.07;56.67;101310.19;6497199;23;20437;-77
2023/06/29 11:01:00;;;;;;;30.48;24.23;;;;;;;25.98;56.74;101305.94;6496458;23;20046;-73
2023/06/29 11:03:32;;;;;;;30.90;23.58;;;;;;;25.95;56.50;101306.31;6495293;23;20315;-78
2023/06/29 11:06:03;;;;;;;28.42;24.35;;;;;;;26.14;56.21;101309.44;6497189;23;20007;-80
2023/06/29 11:08:35;;;;;;;27.92;24.95;;;;;;;26.06;55.82;101305.03;6496950;23;20008;-74
2023/06/29 11:11:16;;;;;;;28.05;24.33;;;;;;;26.16;55.36;101310.09;6496055;23;20027;-74
2023/06/29 11:13:48;;;;;;;26.83;23.70;;;;;;;25.98;55.53;101308.59;6495012;23;20008;-74
2023/06/29 11:16:19;;;;;;;27.80;24.38;;;;;;;25.95;54.24;101303.63;6496033;23;20053;-71
2023/06/29 11:18:50;;;;;;;27.45;23.05;;;;;;;25.91;55.81;101305.00;6496940;23;20001;-72
2023/06/29 11:21:25;;;;;;;28.30;24.30;;;;;;;26.06;54.61;101303.16;6496360;23;20024;-73
2023/06/29 11:23:56;;;;;;;28.58;24.17;;;;;;;26.07;53.97;101295.94;6496540;23;20028;-73
2023/06/29 11:26:28;;;;;;;25.80;22.90;;;;;;;25.99;52.14;101294.16;6469601;23;20007;-73